sensor_id;sensor_type;location;lat;lon;timestamp;P1;durP1;ratioP1;P2;durP2;ratioP2
11453;SDS011;5783;55.174;61.310;2022-12-11T00:01:24;1.17;;;1.07;;
11453;SDS011;5783;55.174;61.310;2022-12-11T00:03:53;0.80;;;0.80;;
11453;SDS011;5783;55.174;61.310;2022-12-11T00:06:23;1.53;;;1.10;;
11453;SDS011;5783;55.174;61.310;2022-12-11T00:08:54;1.27;;;1.03;;
11453;SDS011;5783;55.174;61.310;2022-12-11T00:11:23;0.97;;;0.87;;
11453;SDS011;5783;55.174;61.310;2022-12-11T00:13:52;0.80;;;0.80;;
11453;SDS011;5783;55.174;61.310;2022-12-11T00:16:21;2.17;;;1.10;;
11453;SDS011;5783;55.174;61.310;2022-12-11T00:18:50;0.70;;;0.70;;
11453;SDS011;5783;55.174;61.310;2022-12-11T00:21:19;0.80;;;0.70;;
11453;SDS011;5783;55.174;61.310;2022-12-11T00:23:49;1.00;;;0.80;;
11453;SDS011;5783;55.174;61.310;2022-12-11T00:26:18;1.53;;;1.10;;
11453;SDS011;5783;55.174;61.310;2022-12-11T00:28:47;1.03;;;0.90;;
11453;SDS011;5783;55.174;61.310;2022-12-11T00:31:19;1.63;;;0.90;;
11453;SDS011;5783;55.174;61.310;2022-12-11T00:33:49;1.40;;;1.20;;
11453;SDS011;5783;55.174;61.310;2022-12-11T00:36:19;0.63;;;0.63;;
11453;SDS011;5783;55.174;61.310;2022-12-11T00:38:51;1.30;;;1.10;;
11453;SDS011;5783;55.174;61.310;2022-12-11T00:41:22;0.93;;;0.93;;
11453;SDS011;5783;55.174;61.310;2022-12-11T00:43:52;1.23;;;1.10;;
11453;SDS011;5783;55.174;61.310;2022-12-11T00:46:21;1.80;;;1.20;;
11453;SDS011;5783;55.174;61.310;2022-12-11T00:48:50;1.10;;;1.00;;
11453;SDS011;5783;55.174;61.310;2022-12-11T00:51:19;0.90;;;0.77;;
11453;SDS011;5783;55.174;61.310;2022-12-11T00:53:48;0.93;;;0.90;;
11453;SDS011;5783;55.174;61.310;2022-12-11T00:56:18;1.40;;;1.17;;
11453;SDS011;5783;55.174;61.310;2022-12-11T00:58:49;1.17;;;1.00;;
11453;SDS011;5783;55.174;61.310;2022-12-11T01:01:21;1.23;;;0.80;;
11453;SDS011;5783;55.174;61.310;2022-12-11T01:03:51;1.23;;;1.00;;
11453;SDS011;5783;55.174;61.310;2022-12-11T01:06:22;1.83;;;1.13;;
11453;SDS011;5783;55.174;61.310;2022-12-11T01:08:53;0.77;;;0.73;;
11453;SDS011;5783;55.174;61.310;2022-12-11T01:11:42;1.10;;;1.00;;
11453;SDS011;5783;55.174;61.310;2022-12-11T01:14:11;1.00;;;0.80;;
11453;SDS011;5783;55.174;61.310;2022-12-11T01:16:41;1.47;;;1.03;;
11453;SDS011;5783;55.174;61.310;2022-12-11T01:19:10;0.80;;;0.80;;
11453;SDS011;5783;55.174;61.310;2022-12-11T01:21:39;1.20;;;1.10;;
11453;SDS011;5783;55.174;61.310;2022-12-11T01:24:08;1.47;;;1.03;;
11453;SDS011;5783;55.174;61.310;2022-12-11T01:26:37;1.37;;;1.00;;
11453;SDS011;5783;55.174;61.310;2022-12-11T01:29:06;1.17;;;0.93;;
11453;SDS011;5783;55.174;61.310;2022-12-11T01:31:36;1.20;;;1.10;;
11453;SDS011;5783;55.174;61.310;2022-12-11T01:34:05;1.00;;;0.90;;
11453;SDS011;5783;55.174;61.310;2022-12-11T01:36:34;1.10;;;1.00;;
11453;SDS011;5783;55.174;61.310;2022-12-11T01:39:03;1.83;;;1.30;;
11453;SDS011;5783;55.174;61.310;2022-12-11T01:41:32;1.00;;;0.90;;
11453;SDS011;5783;55.174;61.310;2022-12-11T01:46:52;1.23;;;0.90;;
11453;SDS011;5783;55.174;61.310;2022-12-11T01:49:22;1.10;;;1.00;;
11453;SDS011;5783;55.174;61.310;2022-12-11T01:55:03;1.10;;;0.90;;
11453;SDS011;5783;55.174;61.310;2022-12-11T01:57:35;1.30;;;1.07;;
11453;SDS011;5783;55.174;61.310;2022-12-11T02:00:05;1.10;;;0.90;;
11453;SDS011;5783;55.174;61.310;2022-12-11T02:02:35;1.23;;;0.90;;
11453;SDS011;5783;55.174;61.310;2022-12-11T02:05:05;0.90;;;0.90;;
11453;SDS011;5783;55.174;61.310;2022-12-11T02:07:36;1.70;;;1.07;;
11453;SDS011;5783;55.174;61.310;2022-12-11T02:10:07;1.10;;;1.00;;
11453;SDS011;5783;55.174;61.310;2022-12-11T02:15:30;1.23;;;1.00;;
11453;SDS011;5783;55.174;61.310;2022-12-11T02:30:14;1.00;;;0.90;;
11453;SDS011;5783;55.174;61.310;2022-12-11T02:32:46;1.57;;;1.00;;
11453;SDS011;5783;55.174;61.310;2022-12-11T02:38:08;1.00;;;0.80;;
11453;SDS011;5783;55.174;61.310;2022-12-11T02:40:57;1.37;;;0.90;;
11453;SDS011;5783;55.174;61.310;2022-12-11T02:43:27;1.20;;;1.10;;
11453;SDS011;5783;55.174;61.310;2022-12-11T02:45:59;1.50;;;1.00;;
11453;SDS011;5783;55.174;61.310;2022-12-11T02:48:30;1.87;;;0.97;;
11453;SDS011;5783;55.174;61.310;2022-12-11T02:51:01;1.00;;;0.90;;
11453;SDS011;5783;55.174;61.310;2022-12-11T02:53:33;1.07;;;0.90;;
11453;SDS011;5783;55.174;61.310;2022-12-11T02:58:55;1.03;;;0.93;;
11453;SDS011;5783;55.174;61.310;2022-12-11T03:01:26;0.70;;;0.70;;
11453;SDS011;5783;55.174;61.310;2022-12-11T03:03:55;1.00;;;0.90;;
11453;SDS011;5783;55.174;61.310;2022-12-11T03:08:58;1.10;;;1.00;;
11453;SDS011;5783;55.174;61.310;2022-12-11T03:11:27;1.30;;;1.10;;
11453;SDS011;5783;55.174;61.310;2022-12-11T03:13:56;1.07;;;0.93;;
11453;SDS011;5783;55.174;61.310;2022-12-11T03:19:59;1.40;;;1.10;;
11453;SDS011;5783;55.174;61.310;2022-12-11T03:28:28;1.10;;;0.90;;
11453;SDS011;5783;55.174;61.310;2022-12-11T03:30:59;1.13;;;1.03;;
11453;SDS011;5783;55.174;61.310;2022-12-11T03:33:32;2.23;;;1.03;;
11453;SDS011;5783;55.174;61.310;2022-12-11T03:36:04;1.80;;;0.93;;
11453;SDS011;5783;55.174;61.310;2022-12-11T03:39:13;1.47;;;1.20;;
11453;SDS011;5783;55.174;61.310;2022-12-11T03:42:02;1.47;;;1.20;;
11453;SDS011;5783;55.174;61.310;2022-12-11T03:44:34;2.00;;;1.20;;
11453;SDS011;5783;55.174;61.310;2022-12-11T03:47:05;1.40;;;1.10;;
11453;SDS011;5783;55.174;61.310;2022-12-11T03:49:37;1.30;;;1.13;;
11453;SDS011;5783;55.174;61.310;2022-12-11T03:52:08;2.40;;;1.00;;
11453;SDS011;5783;55.174;61.310;2022-12-11T03:54:39;1.07;;;1.00;;
11453;SDS011;5783;55.174;61.310;2022-12-11T03:57:10;1.20;;;1.10;;
11453;SDS011;5783;55.174;61.310;2022-12-11T03:59:42;1.43;;;1.10;;
11453;SDS011;5783;55.174;61.310;2022-12-11T04:02:12;1.90;;;1.20;;
11453;SDS011;5783;55.174;61.310;2022-12-11T04:04:41;2.10;;;1.27;;
11453;SDS011;5783;55.174;61.310;2022-12-11T04:07:10;1.47;;;1.00;;
11453;SDS011;5783;55.174;61.310;2022-12-11T04:09:39;1.50;;;1.10;;
11453;SDS011;5783;55.174;61.310;2022-12-11T04:12:08;2.27;;;1.30;;
11453;SDS011;5783;55.174;61.310;2022-12-11T04:14:38;2.10;;;1.20;;
11453;SDS011;5783;55.174;61.310;2022-12-11T04:20:19;2.80;;;1.20;;
11453;SDS011;5783;55.174;61.310;2022-12-11T04:26:17;2.73;;;1.50;;
11453;SDS011;5783;55.174;61.310;2022-12-11T04:28:47;3.83;;;1.60;;
11453;SDS011;5783;55.174;61.310;2022-12-11T04:31:18;2.07;;;1.37;;
11453;SDS011;5783;55.174;61.310;2022-12-11T04:33:48;2.87;;;1.60;;
11453;SDS011;5783;55.174;61.310;2022-12-11T04:36:19;4.03;;;1.47;;
11453;SDS011;5783;55.174;61.310;2022-12-11T04:38:48;4.00;;;1.33;;
11453;SDS011;5783;55.174;61.310;2022-12-11T04:41:18;3.03;;;1.20;;
11453;SDS011;5783;55.174;61.310;2022-12-11T04:43:46;3.00;;;2.07;;
11453;SDS011;5783;55.174;61.310;2022-12-11T04:48:47;4.03;;;2.13;;
11453;SDS011;5783;55.174;61.310;2022-12-11T04:51:17;4.13;;;2.20;;
11453;SDS011;5783;55.174;61.310;2022-12-11T04:53:46;3.23;;;2.60;;
11453;SDS011;5783;55.174;61.310;2022-12-11T04:56:16;4.43;;;2.60;;
11453;SDS011;5783;55.174;61.310;2022-12-11T04:58:45;4.17;;;2.47;;
11453;SDS011;5783;55.174;61.310;2022-12-11T05:04:02;5.70;;;3.00;;
11453;SDS011;5783;55.174;61.310;2022-12-11T05:06:32;7.63;;;3.00;;
11453;SDS011;5783;55.174;61.310;2022-12-11T05:09:01;5.37;;;3.13;;
11453;SDS011;5783;55.174;61.310;2022-12-11T05:11:30;5.07;;;2.90;;
11453;SDS011;5783;55.174;61.310;2022-12-11T05:13:59;6.00;;;3.10;;
11453;SDS011;5783;55.174;61.310;2022-12-11T05:16:28;4.67;;;2.80;;
11453;SDS011;5783;55.174;61.310;2022-12-11T05:18:58;4.37;;;2.73;;
11453;SDS011;5783;55.174;61.310;2022-12-11T05:21:27;5.27;;;2.80;;
11453;SDS011;5783;55.174;61.310;2022-12-11T05:23:56;5.47;;;2.87;;
11453;SDS011;5783;55.174;61.310;2022-12-11T05:26:25;3.77;;;2.70;;
11453;SDS011;5783;55.174;61.310;2022-12-11T05:28:54;3.73;;;2.20;;
11453;SDS011;5783;55.174;61.310;2022-12-11T05:31:24;4.47;;;2.33;;
11453;SDS011;5783;55.174;61.310;2022-12-11T05:33:54;3.27;;;2.13;;
11453;SDS011;5783;55.174;61.310;2022-12-11T05:36:24;3.33;;;2.23;;
11453;SDS011;5783;55.174;61.310;2022-12-11T05:38:56;3.70;;;2.40;;
11453;SDS011;5783;55.174;61.310;2022-12-11T05:41:28;4.30;;;2.03;;
11453;SDS011;5783;55.174;61.310;2022-12-11T05:43:57;3.83;;;2.10;;
11453;SDS011;5783;55.174;61.310;2022-12-11T05:46:28;2.27;;;1.70;;
11453;SDS011;5783;55.174;61.310;2022-12-11T05:48:58;3.47;;;1.90;;
11453;SDS011;5783;55.174;61.310;2022-12-11T05:51:29;3.47;;;2.00;;
11453;SDS011;5783;55.174;61.310;2022-12-11T05:54:18;4.77;;;2.10;;
11453;SDS011;5783;55.174;61.310;2022-12-11T05:56:48;2.00;;;1.70;;
11453;SDS011;5783;55.174;61.310;2022-12-11T05:59:18;5.60;;;1.83;;
11453;SDS011;5783;55.174;61.310;2022-12-11T06:01:47;3.27;;;1.87;;
11453;SDS011;5783;55.174;61.310;2022-12-11T06:04:16;4.00;;;2.00;;
11453;SDS011;5783;55.174;61.310;2022-12-11T06:06:47;2.90;;;1.90;;
11453;SDS011;5783;55.174;61.310;2022-12-11T06:09:16;3.83;;;1.87;;
11453;SDS011;5783;55.174;61.310;2022-12-11T06:11:45;3.97;;;2.00;;
11453;SDS011;5783;55.174;61.310;2022-12-11T06:14:15;3.53;;;1.80;;
11453;SDS011;5783;55.174;61.310;2022-12-11T06:16:44;3.93;;;1.77;;
11453;SDS011;5783;55.174;61.310;2022-12-11T06:19:13;2.83;;;1.70;;
11453;SDS011;5783;55.174;61.310;2022-12-11T06:21:43;4.30;;;1.90;;
11453;SDS011;5783;55.174;61.310;2022-12-11T06:24:13;3.10;;;2.00;;
11453;SDS011;5783;55.174;61.310;2022-12-11T06:26:42;3.03;;;2.00;;
11453;SDS011;5783;55.174;61.310;2022-12-11T06:29:11;4.57;;;1.90;;
11453;SDS011;5783;55.174;61.310;2022-12-11T06:31:40;2.63;;;1.90;;
11453;SDS011;5783;55.174;61.310;2022-12-11T06:34:12;2.27;;;1.70;;
11453;SDS011;5783;55.174;61.310;2022-12-11T06:36:41;2.90;;;1.90;;
11453;SDS011;5783;55.174;61.310;2022-12-11T06:39:10;4.60;;;2.20;;
11453;SDS011;5783;55.174;61.310;2022-12-11T06:41:39;3.20;;;1.70;;
11453;SDS011;5783;55.174;61.310;2022-12-11T06:44:08;2.30;;;1.77;;
11453;SDS011;5783;55.174;61.310;2022-12-11T06:46:37;2.83;;;1.90;;
11453;SDS011;5783;55.174;61.310;2022-12-11T06:49:06;3.03;;;2.20;;
11453;SDS011;5783;55.174;61.310;2022-12-11T06:51:35;6.20;;;2.03;;
11453;SDS011;5783;55.174;61.310;2022-12-11T06:54:05;3.93;;;2.27;;
11453;SDS011;5783;55.174;61.310;2022-12-11T06:56:34;3.33;;;1.90;;
11453;SDS011;5783;55.174;61.310;2022-12-11T06:59:03;3.87;;;2.00;;
11453;SDS011;5783;55.174;61.310;2022-12-11T07:01:32;2.00;;;1.77;;
11453;SDS011;5783;55.174;61.310;2022-12-11T07:04:01;4.17;;;1.83;;
11453;SDS011;5783;55.174;61.310;2022-12-11T07:06:30;2.57;;;1.63;;
11453;SDS011;5783;55.174;61.310;2022-12-11T07:09:02;1.97;;;1.77;;
11453;SDS011;5783;55.174;61.310;2022-12-11T07:11:50;2.03;;;1.60;;
11453;SDS011;5783;55.174;61.310;2022-12-11T07:14:20;1.93;;;1.70;;
11453;SDS011;5783;55.174;61.310;2022-12-11T07:16:49;1.67;;;1.40;;
11453;SDS011;5783;55.174;61.310;2022-12-11T07:19:18;2.37;;;1.60;;
11453;SDS011;5783;55.174;61.310;2022-12-11T07:21:47;1.70;;;1.60;;
11453;SDS011;5783;55.174;61.310;2022-12-11T07:24:16;1.70;;;1.30;;
11453;SDS011;5783;55.174;61.310;2022-12-11T07:26:46;4.00;;;1.60;;
11453;SDS011;5783;55.174;61.310;2022-12-11T07:29:15;3.10;;;1.27;;
11453;SDS011;5783;55.174;61.310;2022-12-11T07:31:44;2.67;;;1.60;;
11453;SDS011;5783;55.174;61.310;2022-12-11T07:34:15;2.13;;;1.40;;
11453;SDS011;5783;55.174;61.310;2022-12-11T07:36:45;3.57;;;1.57;;
11453;SDS011;5783;55.174;61.310;2022-12-11T07:39:14;1.73;;;1.23;;
11453;SDS011;5783;55.174;61.310;2022-12-11T07:41:43;2.23;;;1.40;;
11453;SDS011;5783;55.174;61.310;2022-12-11T07:44:12;2.20;;;1.50;;
11453;SDS011;5783;55.174;61.310;2022-12-11T07:46:41;1.83;;;1.60;;
11453;SDS011;5783;55.174;61.310;2022-12-11T07:49:10;2.40;;;1.50;;
11453;SDS011;5783;55.174;61.310;2022-12-11T07:51:39;2.07;;;1.40;;
11453;SDS011;5783;55.174;61.310;2022-12-11T07:54:10;1.63;;;1.43;;
11453;SDS011;5783;55.174;61.310;2022-12-11T07:56:42;1.80;;;1.33;;
11453;SDS011;5783;55.174;61.310;2022-12-11T07:59:12;2.03;;;1.40;;
11453;SDS011;5783;55.174;61.310;2022-12-11T08:01:42;1.77;;;1.30;;
11453;SDS011;5783;55.174;61.310;2022-12-11T08:04:11;3.40;;;1.43;;
11453;SDS011;5783;55.174;61.310;2022-12-11T08:06:40;3.90;;;1.40;;
11453;SDS011;5783;55.174;61.310;2022-12-11T08:09:10;1.70;;;1.20;;
11453;SDS011;5783;55.174;61.310;2022-12-11T08:11:40;1.73;;;1.33;;
11453;SDS011;5783;55.174;61.310;2022-12-11T08:14:09;1.90;;;1.40;;
11453;SDS011;5783;55.174;61.310;2022-12-11T08:16:38;1.77;;;1.50;;
11453;SDS011;5783;55.174;61.310;2022-12-11T08:21:57;2.03;;;1.40;;
11453;SDS011;5783;55.174;61.310;2022-12-11T08:27:16;1.83;;;1.50;;
11453;SDS011;5783;55.174;61.310;2022-12-11T08:29:45;2.37;;;1.60;;
11453;SDS011;5783;55.174;61.310;2022-12-11T08:32:15;1.90;;;1.40;;
11453;SDS011;5783;55.174;61.310;2022-12-11T08:34:44;2.10;;;1.37;;
11453;SDS011;5783;55.174;61.310;2022-12-11T08:37:13;2.03;;;1.40;;
11453;SDS011;5783;55.174;61.310;2022-12-11T08:39:42;2.57;;;1.47;;
11453;SDS011;5783;55.174;61.310;2022-12-11T08:42:11;1.50;;;1.40;;
11453;SDS011;5783;55.174;61.310;2022-12-11T08:44:40;1.57;;;1.47;;
11453;SDS011;5783;55.174;61.310;2022-12-11T08:47:10;3.03;;;1.37;;
11453;SDS011;5783;55.174;61.310;2022-12-11T08:49:40;3.27;;;1.50;;
11453;SDS011;5783;55.174;61.310;2022-12-11T08:52:09;2.27;;;1.50;;
11453;SDS011;5783;55.174;61.310;2022-12-11T08:54:38;1.60;;;1.50;;
11453;SDS011;5783;55.174;61.310;2022-12-11T08:57:07;2.00;;;1.70;;
11453;SDS011;5783;55.174;61.310;2022-12-11T08:59:36;1.73;;;1.60;;
11453;SDS011;5783;55.174;61.310;2022-12-11T09:02:05;3.03;;;1.80;;
11453;SDS011;5783;55.174;61.310;2022-12-11T09:04:36;2.73;;;1.70;;
11453;SDS011;5783;55.174;61.310;2022-12-11T09:07:05;2.83;;;1.60;;
11453;SDS011;5783;55.174;61.310;2022-12-11T09:09:34;1.70;;;1.33;;
11453;SDS011;5783;55.174;61.310;2022-12-11T09:14:34;2.20;;;1.60;;
11453;SDS011;5783;55.174;61.310;2022-12-11T09:17:04;2.57;;;1.60;;
11453;SDS011;5783;55.174;61.310;2022-12-11T09:19:33;1.90;;;1.40;;
11453;SDS011;5783;55.174;61.310;2022-12-11T09:22:02;1.40;;;1.30;;
11453;SDS011;5783;55.174;61.310;2022-12-11T09:24:31;2.37;;;1.50;;
11453;SDS011;5783;55.174;61.310;2022-12-11T09:27:00;2.00;;;1.80;;
11453;SDS011;5783;55.174;61.310;2022-12-11T09:29:31;2.33;;;1.60;;
11453;SDS011;5783;55.174;61.310;2022-12-11T09:32:00;2.13;;;1.33;;
11453;SDS011;5783;55.174;61.310;2022-12-11T09:34:29;2.20;;;1.40;;
11453;SDS011;5783;55.174;61.310;2022-12-11T09:36:59;2.93;;;1.70;;
11453;SDS011;5783;55.174;61.310;2022-12-11T09:39:28;3.10;;;1.40;;
11453;SDS011;5783;55.174;61.310;2022-12-11T09:45:09;1.97;;;1.60;;
11453;SDS011;5783;55.174;61.310;2022-12-11T10:07:49;1.70;;;1.27;;
11453;SDS011;5783;55.174;61.310;2022-12-11T10:19:44;2.90;;;1.80;;
11453;SDS011;5783;55.174;61.310;2022-12-11T10:28:11;2.60;;;1.80;;
11453;SDS011;5783;55.174;61.310;2022-12-11T10:30:44;4.70;;;2.40;;
11453;SDS011;5783;55.174;61.310;2022-12-11T10:33:33;3.53;;;2.20;;
11453;SDS011;5783;55.174;61.310;2022-12-11T10:44:31;3.87;;;2.50;;
11453;SDS011;5783;55.174;61.310;2022-12-11T10:47:01;3.93;;;2.53;;
11453;SDS011;5783;55.174;61.310;2022-12-11T10:49:34;4.27;;;2.50;;
11453;SDS011;5783;55.174;61.310;2022-12-11T10:54:55;3.70;;;2.87;;
11453;SDS011;5783;55.174;61.310;2022-12-11T10:57:44;4.80;;;3.00;;
11453;SDS011;5783;55.174;61.310;2022-12-11T11:03:16;4.87;;;2.60;;
11453;SDS011;5783;55.174;61.310;2022-12-11T11:09:04;4.70;;;2.50;;
11453;SDS011;5783;55.174;61.310;2022-12-11T11:11:36;3.93;;;2.47;;
11453;SDS011;5783;55.174;61.310;2022-12-11T11:16:56;3.77;;;2.23;;
11453;SDS011;5783;55.174;61.310;2022-12-11T11:22:17;3.90;;;2.57;;
11453;SDS011;5783;55.174;61.310;2022-12-11T11:31:19;4.80;;;2.60;;
11453;SDS011;5783;55.174;61.310;2022-12-11T11:33:36;6.27;;;2.33;;
11453;SDS011;5783;55.174;61.310;2022-12-11T11:36:28;2.30;;;2.10;;
11453;SDS011;5783;55.174;61.310;2022-12-11T11:48:09;5.70;;;2.20;;
11453;SDS011;5783;55.174;61.310;2022-12-11T11:58:59;2.87;;;2.03;;
11453;SDS011;5783;55.174;61.310;2022-12-11T12:01:46;2.93;;;2.37;;
11453;SDS011;5783;55.174;61.310;2022-12-11T12:04:15;5.67;;;2.33;;
11453;SDS011;5783;55.174;61.310;2022-12-11T12:19:28;3.83;;;2.40;;
11453;SDS011;5783;55.174;61.310;2022-12-11T12:31:24;3.30;;;2.37;;
11453;SDS011;5783;55.174;61.310;2022-12-11T12:43:24;2.77;;;2.50;;
11453;SDS011;5783;55.174;61.310;2022-12-11T12:45:51;3.00;;;2.60;;
11453;SDS011;5783;55.174;61.310;2022-12-11T12:48:38;3.20;;;2.30;;
11453;SDS011;5783;55.174;61.310;2022-12-11T12:51:08;3.93;;;2.40;;
11453;SDS011;5783;55.174;61.310;2022-12-11T12:53:40;4.10;;;2.40;;
11453;SDS011;5783;55.174;61.310;2022-12-11T12:56:11;4.33;;;2.17;;
11453;SDS011;5783;55.174;61.310;2022-12-11T12:58:43;2.73;;;2.20;;
11453;SDS011;5783;55.174;61.310;2022-12-11T13:07:47;3.23;;;2.47;;
11453;SDS011;5783;55.174;61.310;2022-12-11T13:18:50;2.57;;;2.13;;
11453;SDS011;5783;55.174;61.310;2022-12-11T13:35:29;3.10;;;2.30;;
11453;SDS011;5783;55.174;61.310;2022-12-11T13:38:02;3.73;;;2.03;;
11453;SDS011;5783;55.174;61.310;2022-12-11T13:40:52;3.03;;;2.20;;
11453;SDS011;5783;55.174;61.310;2022-12-11T13:43:23;2.83;;;2.10;;
11453;SDS011;5783;55.174;61.310;2022-12-11T13:46:12;3.23;;;2.33;;
11453;SDS011;5783;55.174;61.310;2022-12-11T13:48:45;3.10;;;2.30;;
11453;SDS011;5783;55.174;61.310;2022-12-11T13:51:16;2.33;;;1.97;;
11453;SDS011;5783;55.174;61.310;2022-12-11T13:53:46;1.80;;;1.70;;
11453;SDS011;5783;55.174;61.310;2022-12-11T13:56:17;2.47;;;2.10;;
11453;SDS011;5783;55.174;61.310;2022-12-11T13:58:47;2.73;;;2.10;;
11453;SDS011;5783;55.174;61.310;2022-12-11T14:01:19;4.60;;;2.20;;
11453;SDS011;5783;55.174;61.310;2022-12-11T14:06:39;4.73;;;1.90;;
11453;SDS011;5783;55.174;61.310;2022-12-11T14:09:27;2.67;;;1.93;;
11453;SDS011;5783;55.174;61.310;2022-12-11T14:11:59;2.37;;;1.90;;
11453;SDS011;5783;55.174;61.310;2022-12-11T14:28:41;3.40;;;2.27;;
11453;SDS011;5783;55.174;61.310;2022-12-11T14:31:12;2.13;;;1.93;;
11453;SDS011;5783;55.174;61.310;2022-12-11T14:33:44;2.83;;;2.20;;
11453;SDS011;5783;55.174;61.310;2022-12-11T14:36:15;2.10;;;1.80;;
11453;SDS011;5783;55.174;61.310;2022-12-11T14:44:24;6.00;;;2.10;;
11453;SDS011;5783;55.174;61.310;2022-12-11T14:46:57;3.87;;;2.00;;
11453;SDS011;5783;55.174;61.310;2022-12-11T14:52:55;2.67;;;2.03;;
11453;SDS011;5783;55.174;61.310;2022-12-11T14:55:44;3.43;;;2.10;;
11453;SDS011;5783;55.174;61.310;2022-12-11T14:58:16;2.93;;;1.87;;
11453;SDS011;5783;55.174;61.310;2022-12-11T15:03:39;2.60;;;2.07;;
11453;SDS011;5783;55.174;61.310;2022-12-11T15:17:49;3.47;;;1.50;;
11453;SDS011;5783;55.174;61.310;2022-12-11T15:23:08;2.00;;;1.67;;
11453;SDS011;5783;55.174;61.310;2022-12-11T15:25:37;3.03;;;1.57;;
11453;SDS011;5783;55.174;61.310;2022-12-11T15:28:22;2.77;;;1.90;;
11453;SDS011;5783;55.174;61.310;2022-12-11T15:30:58;2.60;;;1.80;;
11453;SDS011;5783;55.174;61.310;2022-12-11T15:33:27;2.47;;;1.90;;
11453;SDS011;5783;55.174;61.310;2022-12-11T15:35:57;3.10;;;1.67;;
11453;SDS011;5783;55.174;61.310;2022-12-11T15:38:46;2.33;;;1.77;;
11453;SDS011;5783;55.174;61.310;2022-12-11T15:41:16;2.70;;;1.67;;
11453;SDS011;5783;55.174;61.310;2022-12-11T15:43:48;3.57;;;2.17;;
11453;SDS011;5783;55.174;61.310;2022-12-11T15:46:19;2.30;;;1.80;;
11453;SDS011;5783;55.174;61.310;2022-12-11T15:48:48;1.97;;;1.73;;
11453;SDS011;5783;55.174;61.310;2022-12-11T15:51:18;2.20;;;1.60;;
11453;SDS011;5783;55.174;61.310;2022-12-11T15:53:48;2.67;;;1.90;;
11453;SDS011;5783;55.174;61.310;2022-12-11T15:56:17;2.73;;;1.60;;
11453;SDS011;5783;55.174;61.310;2022-12-11T15:59:05;4.30;;;1.90;;
11453;SDS011;5783;55.174;61.310;2022-12-11T16:01:34;2.47;;;1.80;;
11453;SDS011;5783;55.174;61.310;2022-12-11T16:04:04;2.60;;;1.73;;
11453;SDS011;5783;55.174;61.310;2022-12-11T16:06:33;3.17;;;1.70;;
11453;SDS011;5783;55.174;61.310;2022-12-11T16:09:02;3.00;;;1.90;;
11453;SDS011;5783;55.174;61.310;2022-12-11T16:11:32;2.20;;;2.00;;
11453;SDS011;5783;55.174;61.310;2022-12-11T16:14:01;2.43;;;1.67;;
11453;SDS011;5783;55.174;61.310;2022-12-11T16:16:30;2.80;;;1.70;;
11453;SDS011;5783;55.174;61.310;2022-12-11T16:18:59;2.50;;;1.77;;
11453;SDS011;5783;55.174;61.310;2022-12-11T16:21:29;2.17;;;1.67;;
11453;SDS011;5783;55.174;61.310;2022-12-11T16:23:58;3.03;;;1.87;;
11453;SDS011;5783;55.174;61.310;2022-12-11T16:26:27;2.60;;;1.97;;
11453;SDS011;5783;55.174;61.310;2022-12-11T16:28:56;2.87;;;2.10;;
11453;SDS011;5783;55.174;61.310;2022-12-11T16:31:25;3.13;;;1.80;;
11453;SDS011;5783;55.174;61.310;2022-12-11T16:33:54;2.60;;;1.80;;
11453;SDS011;5783;55.174;61.310;2022-12-11T16:36:23;2.60;;;1.80;;
11453;SDS011;5783;55.174;61.310;2022-12-11T16:38:53;2.50;;;1.70;;
11453;SDS011;5783;55.174;61.310;2022-12-11T16:41:22;3.10;;;2.00;;
11453;SDS011;5783;55.174;61.310;2022-12-11T16:43:51;2.67;;;1.90;;
11453;SDS011;5783;55.174;61.310;2022-12-11T16:46:21;3.00;;;2.10;;
11453;SDS011;5783;55.174;61.310;2022-12-11T16:48:51;3.17;;;2.10;;
11453;SDS011;5783;55.174;61.310;2022-12-11T16:51:20;2.27;;;1.73;;
11453;SDS011;5783;55.174;61.310;2022-12-11T16:53:51;3.30;;;1.90;;
11453;SDS011;5783;55.174;61.310;2022-12-11T16:56:20;2.20;;;1.77;;
11453;SDS011;5783;55.174;61.310;2022-12-11T16:58:51;3.20;;;1.90;;
11453;SDS011;5783;55.174;61.310;2022-12-11T17:04:11;4.00;;;2.13;;
11453;SDS011;5783;55.174;61.310;2022-12-11T17:06:40;3.37;;;1.87;;
11453;SDS011;5783;55.174;61.310;2022-12-11T17:09:11;2.30;;;1.90;;
11453;SDS011;5783;55.174;61.310;2022-12-11T17:12:03;2.80;;;2.10;;
11453;SDS011;5783;55.174;61.310;2022-12-11T17:14:36;2.97;;;2.23;;
11453;SDS011;5783;55.174;61.310;2022-12-11T17:17:24;3.43;;;2.07;;
11453;SDS011;5783;55.174;61.310;2022-12-11T17:19:55;4.63;;;2.20;;
11453;SDS011;5783;55.174;61.310;2022-12-11T17:22:24;3.60;;;2.20;;
11453;SDS011;5783;55.174;61.310;2022-12-11T17:27:47;3.20;;;1.90;;
11453;SDS011;5783;55.174;61.310;2022-12-11T17:30:39;3.30;;;2.40;;
11453;SDS011;5783;55.174;61.310;2022-12-11T17:33:28;2.80;;;1.83;;
11453;SDS011;5783;55.174;61.310;2022-12-11T17:35:59;2.57;;;1.87;;
11453;SDS011;5783;55.174;61.310;2022-12-11T17:38:31;2.70;;;1.90;;
11453;SDS011;5783;55.174;61.310;2022-12-11T17:41:03;2.70;;;1.93;;
11453;SDS011;5783;55.174;61.310;2022-12-11T17:46:43;4.10;;;2.30;;
11453;SDS011;5783;55.174;61.310;2022-12-11T17:49:13;2.67;;;1.80;;
11453;SDS011;5783;55.174;61.310;2022-12-11T17:51:44;3.27;;;2.03;;
11453;SDS011;5783;55.174;61.310;2022-12-11T17:54:17;2.53;;;1.97;;
11453;SDS011;5783;55.174;61.310;2022-12-11T17:56:49;2.87;;;2.20;;
11453;SDS011;5783;55.174;61.310;2022-12-11T17:59:38;2.97;;;2.00;;
11453;SDS011;5783;55.174;61.310;2022-12-11T18:05:01;4.40;;;2.10;;
11453;SDS011;5783;55.174;61.310;2022-12-11T18:07:34;2.63;;;2.10;;
11453;SDS011;5783;55.174;61.310;2022-12-11T18:10:07;3.43;;;2.00;;
11453;SDS011;5783;55.174;61.310;2022-12-11T18:18:59;3.73;;;2.23;;
11453;SDS011;5783;55.174;61.310;2022-12-11T18:24:01;3.27;;;2.13;;
11453;SDS011;5783;55.174;61.310;2022-12-11T18:26:32;2.37;;;1.83;;
11453;SDS011;5783;55.174;61.310;2022-12-11T18:29:05;2.40;;;1.83;;
11453;SDS011;5783;55.174;61.310;2022-12-11T18:31:53;5.10;;;2.17;;
11453;SDS011;5783;55.174;61.310;2022-12-11T18:34:23;2.53;;;1.93;;
11453;SDS011;5783;55.174;61.310;2022-12-11T18:36:53;2.70;;;1.97;;
11453;SDS011;5783;55.174;61.310;2022-12-11T18:39:27;2.90;;;1.87;;
11453;SDS011;5783;55.174;61.310;2022-12-11T18:44:48;3.87;;;2.07;;
11453;SDS011;5783;55.174;61.310;2022-12-11T18:47:17;2.30;;;1.73;;
11453;SDS011;5783;55.174;61.310;2022-12-11T18:50:06;2.00;;;1.80;;
11453;SDS011;5783;55.174;61.310;2022-12-11T18:52:37;2.97;;;1.70;;
11453;SDS011;5783;55.174;61.310;2022-12-11T18:55:09;3.57;;;2.10;;
11453;SDS011;5783;55.174;61.310;2022-12-11T18:57:38;2.07;;;1.70;;
11453;SDS011;5783;55.174;61.310;2022-12-11T19:00:09;2.50;;;1.60;;
11453;SDS011;5783;55.174;61.310;2022-12-11T19:05:15;3.40;;;1.80;;
11453;SDS011;5783;55.174;61.310;2022-12-11T19:10:23;2.70;;;2.00;;
11453;SDS011;5783;55.174;61.310;2022-12-11T19:12:52;2.27;;;1.80;;
11453;SDS011;5783;55.174;61.310;2022-12-11T19:22:03;2.60;;;1.90;;
11453;SDS011;5783;55.174;61.310;2022-12-11T19:24:53;2.20;;;1.60;;
11453;SDS011;5783;55.174;61.310;2022-12-11T19:27:46;2.17;;;1.70;;
11453;SDS011;5783;55.174;61.310;2022-12-11T19:30:18;2.50;;;1.70;;
11453;SDS011;5783;55.174;61.310;2022-12-11T19:35:41;2.63;;;1.93;;
11453;SDS011;5783;55.174;61.310;2022-12-11T19:43:52;1.80;;;1.57;;
11453;SDS011;5783;55.174;61.310;2022-12-11T19:46:43;3.07;;;1.60;;
11453;SDS011;5783;55.174;61.310;2022-12-11T19:49:12;2.93;;;1.60;;
11453;SDS011;5783;55.174;61.310;2022-12-11T19:51:46;1.93;;;1.70;;
11453;SDS011;5783;55.174;61.310;2022-12-11T19:54:35;2.30;;;1.80;;
11453;SDS011;5783;55.174;61.310;2022-12-11T19:57:07;2.63;;;1.80;;
11453;SDS011;5783;55.174;61.310;2022-12-11T19:59:57;3.10;;;1.80;;
11453;SDS011;5783;55.174;61.310;2022-12-11T20:02:48;2.17;;;1.70;;
11453;SDS011;5783;55.174;61.310;2022-12-11T20:05:17;2.20;;;1.70;;
11453;SDS011;5783;55.174;61.310;2022-12-11T20:07:46;3.23;;;1.77;;